Etusivu
METAR-TAF:

METAR-TAF

Lentoasemat :

Hagåtña, Guam, Yhdysvallat

Antonio B. Won Patin kansainvälinen lentoasema

Leveyspiiri: 13-29N, Pituuspiiri: 144-48E, korkeus merenpinnasta: 91 m

Tämänhetkinen sää

Tämä raportti tehtiin 18 tuntia ja 51 minuuttia sitten, kello 13.54 UTC
Tuuli 9 kn idästä/koillisesta
Lämpötila 26°C
Kosteus 89%
Ilmanpaine 1012 hPa
Näkyvyys: 16.1 km
Muutamia pilviä 3900 ft:n korkeudessa

METAR: PGUM 201354Z 07009KT 10SM FEW039 26/24 A2988 RMK AO2 RAB14E23 SLP111 P0000 T02610244 403060250

Aika: 18:45 (08:45 UTC)

Sääennuste

Tämä raportti tehtiin 21 tuntia ja 7 minuuttia sitten, kello 11.38 UTC
Ennuste voimassa 20. päivästä klo 12 UTC - 21. päivään klo 18 UTC
Tuuli 11 kn idästä/koillisesta
Näkyvyys: 10 km
Muutamia pilviä 2000 ft:n korkeudessa
Hajanaisia pilviä 4000 ft:n korkeudessa
sadekuuroja näköpiirissä

TAF: PGUM 201138Z 2012/2118 07011KT P6SM VCSH FEW020 SCT040

Säähavainnot ja -ennusteet yli 4000 lentoasemalta (METAR- ja TAF-raportit).

Käytössä olevat sääasemat on merkitty karttaan keltaisilla ja punaisilla pisteillä.

Aseta hiiri pisteen päälle nähdäksesi sääaseman nimen.

Klikkaa sitten nähdäksesi säähavainnot ja -ennusteet.

Kartan vaihtaminen: klikkaa mustalla rastilla varustettuja vihreitä pisteitä, niin voit zoomata sisään; viivalla varustettua vihreää pistettä, niin voit zoomata ulos tai vihreitä nuolia, niin pääset viereisille kartoille.


METAR-TAF: